sensor_id;sensor_type;location;lat;lon;timestamp;temperature;humidity
15241;DHT22;7723;52.170;9.978;2023-02-20T00:00:53;6.00;99.90
15241;DHT22;7723;52.170;9.978;2023-02-20T00:03:20;6.00;99.90
15241;DHT22;7723;52.170;9.978;2023-02-20T00:05:47;6.00;99.90
15241;DHT22;7723;52.170;9.978;2023-02-20T00:08:14;6.00;99.90
15241;DHT22;7723;52.170;9.978;2023-02-20T00:10:41;6.10;99.90
15241;DHT22;7723;52.170;9.978;2023-02-20T00:13:10;6.10;99.90
15241;DHT22;7723;52.170;9.978;2023-02-20T00:15:38;6.00;99.90
15241;DHT22;7723;52.170;9.978;2023-02-20T00:18:05;6.10;99.90
15241;DHT22;7723;52.170;9.978;2023-02-20T00:20:32;6.10;99.90
15241;DHT22;7723;52.170;9.978;2023-02-20T00:23:01;6.10;99.90
15241;DHT22;7723;52.170;9.978;2023-02-20T00:25:28;6.20;99.90
15241;DHT22;7723;52.170;9.978;2023-02-20T00:27:55;6.20;99.90
15241;DHT22;7723;52.170;9.978;2023-02-20T00:30:24;6.20;99.90
15241;DHT22;7723;52.170;9.978;2023-02-20T00:32:53;6.20;99.90
15241;DHT22;7723;52.170;9.978;2023-02-20T00:35:20;6.20;99.90
15241;DHT22;7723;52.170;9.978;2023-02-20T00:37:48;6.20;99.90
15241;DHT22;7723;52.170;9.978;2023-02-20T00:40:17;6.20;99.90
15241;DHT22;7723;52.170;9.978;2023-02-20T00:42:44;6.20;99.90
15241;DHT22;7723;52.170;9.978;2023-02-20T00:45:12;6.20;99.90
15241;DHT22;7723;52.170;9.978;2023-02-20T00:47:41;6.30;99.90
15241;DHT22;7723;52.170;9.978;2023-02-20T00:50:09;6.30;99.90
15241;DHT22;7723;52.170;9.978;2023-02-20T00:52:36;6.30;99.90
15241;DHT22;7723;52.170;9.978;2023-02-20T00:55:05;6.20;99.90
15241;DHT22;7723;52.170;9.978;2023-02-20T00:57:32;6.30;99.90
15241;DHT22;7723;52.170;9.978;2023-02-20T00:59:59;6.20;99.90
15241;DHT22;7723;52.170;9.978;2023-02-20T01:02:26;6.30;99.90
15241;DHT22;7723;52.170;9.978;2023-02-20T01:04:55;6.30;99.90
15241;DHT22;7723;52.170;9.978;2023-02-20T01:07:22;6.30;99.90
15241;DHT22;7723;52.170;9.978;2023-02-20T01:09:49;6.30;99.90
15241;DHT22;7723;52.170;9.978;2023-02-20T01:12:17;6.30;99.90
15241;DHT22;7723;52.170;9.978;2023-02-20T01:14:44;6.30;99.90
15241;DHT22;7723;52.170;9.978;2023-02-20T01:17:12;6.30;99.90
15241;DHT22;7723;52.170;9.978;2023-02-20T01:19:39;6.30;99.90
15241;DHT22;7723;52.170;9.978;2023-02-20T01:22:09;6.30;99.90
15241;DHT22;7723;52.170;9.978;2023-02-20T01:24:36;6.30;99.90
15241;DHT22;7723;52.170;9.978;2023-02-20T01:27:03;6.30;99.90
15241;DHT22;7723;52.170;9.978;2023-02-20T01:29:30;6.30;99.90
15241;DHT22;7723;52.170;9.978;2023-02-20T01:31:57;6.30;99.90
15241;DHT22;7723;52.170;9.978;2023-02-20T01:34:24;6.30;99.90
15241;DHT22;7723;52.170;9.978;2023-02-20T01:36:53;6.30;99.90
15241;DHT22;7723;52.170;9.978;2023-02-20T01:39:24;6.30;99.90
15241;DHT22;7723;52.170;9.978;2023-02-20T01:41:54;6.30;99.90
15241;DHT22;7723;52.170;9.978;2023-02-20T01:44:24;6.30;99.90
15241;DHT22;7723;52.170;9.978;2023-02-20T01:46:52;6.30;99.90
15241;DHT22;7723;52.170;9.978;2023-02-20T01:49:28;6.30;99.90
15241;DHT22;7723;52.170;9.978;2023-02-20T01:52:00;6.30;99.90
15241;DHT22;7723;52.170;9.978;2023-02-20T01:54:30;6.20;99.90
15241;DHT22;7723;52.170;9.978;2023-02-20T01:57:02;6.20;99.90
15241;DHT22;7723;52.170;9.978;2023-02-20T01:59:32;6.20;99.90
15241;DHT22;7723;52.170;9.978;2023-02-20T02:02:03;6.10;99.90
15241;DHT22;7723;52.170;9.978;2023-02-20T02:04:33;6.20;99.90
15241;DHT22;7723;52.170;9.978;2023-02-20T02:07:02;6.20;99.90
15241;DHT22;7723;52.170;9.978;2023-02-20T02:09:37;6.20;99.90
15241;DHT22;7723;52.170;9.978;2023-02-20T02:12:08;6.10;99.90
15241;DHT22;7723;52.170;9.978;2023-02-20T02:14:36;6.10;99.90
15241;DHT22;7723;52.170;9.978;2023-02-20T02:17:16;6.10;99.90
15241;DHT22;7723;52.170;9.978;2023-02-20T02:20:27;6.10;99.90
15241;DHT22;7723;52.170;9.978;2023-02-20T02:23:43;6.00;99.90
15241;DHT22;7723;52.170;9.978;2023-02-20T02:26:29;6.00;99.90
15241;DHT22;7723;52.170;9.978;2023-02-20T02:29:29;5.90;99.90
15241;DHT22;7723;52.170;9.978;2023-02-20T02:32:34;5.90;99.90
15241;DHT22;7723;52.170;9.978;2023-02-20T02:35:29;5.80;99.90
15241;DHT22;7723;52.170;9.978;2023-02-20T02:38:11;5.80;99.90
15241;DHT22;7723;52.170;9.978;2023-02-20T02:40:46;5.70;99.90
15241;DHT22;7723;52.170;9.978;2023-02-20T02:43:17;5.70;99.90
15241;DHT22;7723;52.170;9.978;2023-02-20T02:45:50;5.70;99.90
15241;DHT22;7723;52.170;9.978;2023-02-20T02:48:21;5.70;99.90
15241;DHT22;7723;52.170;9.978;2023-02-20T02:50:56;5.60;99.90
15241;DHT22;7723;52.170;9.978;2023-02-20T02:53:26;5.60;99.90
15241;DHT22;7723;52.170;9.978;2023-02-20T02:55:53;5.60;99.90
15241;DHT22;7723;52.170;9.978;2023-02-20T02:58:20;5.60;99.90
15241;DHT22;7723;52.170;9.978;2023-02-20T03:00:50;5.60;99.90
15241;DHT22;7723;52.170;9.978;2023-02-20T03:03:22;5.60;99.90
15241;DHT22;7723;52.170;9.978;2023-02-20T03:05:54;5.60;99.90
15241;DHT22;7723;52.170;9.978;2023-02-20T03:08:28;5.60;99.90
15241;DHT22;7723;52.170;9.978;2023-02-20T03:11:05;5.60;99.90
15241;DHT22;7723;52.170;9.978;2023-02-20T03:13:36;5.70;99.90
15241;DHT22;7723;52.170;9.978;2023-02-20T03:16:25;5.70;99.90
15241;DHT22;7723;52.170;9.978;2023-02-20T03:18:56;5.80;99.90
15241;DHT22;7723;52.170;9.978;2023-02-20T03:21:27;5.80;99.90
15241;DHT22;7723;52.170;9.978;2023-02-20T03:23:58;5.90;99.90
15241;DHT22;7723;52.170;9.978;2023-02-20T03:26:29;6.00;99.90
15241;DHT22;7723;52.170;9.978;2023-02-20T03:29:01;6.00;99.90
15241;DHT22;7723;52.170;9.978;2023-02-20T03:31:33;6.00;99.90
15241;DHT22;7723;52.170;9.978;2023-02-20T03:34:05;6.10;99.90
15241;DHT22;7723;52.170;9.978;2023-02-20T03:36:56;6.10;99.90
15241;DHT22;7723;52.170;9.978;2023-02-20T03:39:48;6.10;99.90
15241;DHT22;7723;52.170;9.978;2023-02-20T03:42:37;6.10;99.90
15241;DHT22;7723;52.170;9.978;2023-02-20T03:45:25;6.10;99.90
15241;DHT22;7723;52.170;9.978;2023-02-20T03:47:55;6.10;99.90
15241;DHT22;7723;52.170;9.978;2023-02-20T03:50:25;6.10;99.90
15241;DHT22;7723;52.170;9.978;2023-02-20T03:53:10;6.20;99.90
15241;DHT22;7723;52.170;9.978;2023-02-20T03:55:38;6.20;99.90
15241;DHT22;7723;52.170;9.978;2023-02-20T03:58:08;6.20;99.90
15241;DHT22;7723;52.170;9.978;2023-02-20T04:00:42;6.20;99.90
15241;DHT22;7723;52.170;9.978;2023-02-20T04:03:14;6.30;99.90
15241;DHT22;7723;52.170;9.978;2023-02-20T04:05:44;6.30;99.90
15241;DHT22;7723;52.170;9.978;2023-02-20T04:08:15;6.30;99.90
15241;DHT22;7723;52.170;9.978;2023-02-20T04:10:49;6.30;99.90
15241;DHT22;7723;52.170;9.978;2023-02-20T04:13:18;6.40;99.90
15241;DHT22;7723;52.170;9.978;2023-02-20T04:15:46;6.40;99.90
15241;DHT22;7723;52.170;9.978;2023-02-20T04:18:16;6.50;99.90
15241;DHT22;7723;52.170;9.978;2023-02-20T04:20:45;6.50;99.90
15241;DHT22;7723;52.170;9.978;2023-02-20T04:23:16;6.50;99.90
15241;DHT22;7723;52.170;9.978;2023-02-20T04:25:48;6.60;99.90
15241;DHT22;7723;52.170;9.978;2023-02-20T04:28:18;6.60;99.90
15241;DHT22;7723;52.170;9.978;2023-02-20T04:30:46;6.60;99.90
15241;DHT22;7723;52.170;9.978;2023-02-20T04:33:14;6.70;99.90
15241;DHT22;7723;52.170;9.978;2023-02-20T04:35:42;6.70;99.90
15241;DHT22;7723;52.170;9.978;2023-02-20T04:38:09;6.70;99.90
15241;DHT22;7723;52.170;9.978;2023-02-20T04:40:37;6.70;99.90
15241;DHT22;7723;52.170;9.978;2023-02-20T04:43:05;6.70;99.90
15241;DHT22;7723;52.170;9.978;2023-02-20T04:45:33;6.80;99.90
15241;DHT22;7723;52.170;9.978;2023-02-20T04:48:00;6.70;99.90
15241;DHT22;7723;52.170;9.978;2023-02-20T04:50:29;6.80;99.90
15241;DHT22;7723;52.170;9.978;2023-02-20T04:52:57;6.70;99.90
15241;DHT22;7723;52.170;9.978;2023-02-20T04:55:24;6.70;99.90
15241;DHT22;7723;52.170;9.978;2023-02-20T04:57:52;6.70;99.90
15241;DHT22;7723;52.170;9.978;2023-02-20T05:00:23;6.60;99.90
15241;DHT22;7723;52.170;9.978;2023-02-20T05:02:51;6.70;99.90
15241;DHT22;7723;52.170;9.978;2023-02-20T05:05:20;6.70;99.90
15241;DHT22;7723;52.170;9.978;2023-02-20T05:07:48;6.70;99.90
15241;DHT22;7723;52.170;9.978;2023-02-20T05:10:16;6.70;99.90
15241;DHT22;7723;52.170;9.978;2023-02-20T05:12:43;6.70;99.90
15241;DHT22;7723;52.170;9.978;2023-02-20T05:15:10;6.80;99.90
15241;DHT22;7723;52.170;9.978;2023-02-20T05:17:39;6.80;99.90
15241;DHT22;7723;52.170;9.978;2023-02-20T05:20:07;6.80;99.90
15241;DHT22;7723;52.170;9.978;2023-02-20T05:22:34;6.90;99.90
15241;DHT22;7723;52.170;9.978;2023-02-20T05:25:01;6.90;99.90
15241;DHT22;7723;52.170;9.978;2023-02-20T05:27:28;6.90;99.90
15241;DHT22;7723;52.170;9.978;2023-02-20T05:29:57;7.00;99.90
15241;DHT22;7723;52.170;9.978;2023-02-20T05:32:26;7.10;99.90
15241;DHT22;7723;52.170;9.978;2023-02-20T05:34:55;7.10;99.90
15241;DHT22;7723;52.170;9.978;2023-02-20T05:37:23;7.10;99.90
15241;DHT22;7723;52.170;9.978;2023-02-20T05:39:50;7.10;99.90
15241;DHT22;7723;52.170;9.978;2023-02-20T05:42:18;7.10;99.90
15241;DHT22;7723;52.170;9.978;2023-02-20T05:44:46;7.20;99.90
15241;DHT22;7723;52.170;9.978;2023-02-20T05:47:14;7.20;99.90
15241;DHT22;7723;52.170;9.978;2023-02-20T05:49:41;7.20;99.90
15241;DHT22;7723;52.170;9.978;2023-02-20T05:52:11;7.20;99.90
15241;DHT22;7723;52.170;9.978;2023-02-20T05:54:39;7.20;99.90
15241;DHT22;7723;52.170;9.978;2023-02-20T05:57:06;7.20;99.90
15241;DHT22;7723;52.170;9.978;2023-02-20T05:59:34;7.20;99.90
15241;DHT22;7723;52.170;9.978;2023-02-20T06:02:01;7.30;99.90
15241;DHT22;7723;52.170;9.978;2023-02-20T06:04:28;7.30;99.90
15241;DHT22;7723;52.170;9.978;2023-02-20T06:06:56;7.30;99.90
15241;DHT22;7723;52.170;9.978;2023-02-20T06:09:24;7.20;99.90
15241;DHT22;7723;52.170;9.978;2023-02-20T06:11:52;7.20;99.90
15241;DHT22;7723;52.170;9.978;2023-02-20T06:14:22;7.30;99.90
15241;DHT22;7723;52.170;9.978;2023-02-20T06:16:49;7.30;99.90
15241;DHT22;7723;52.170;9.978;2023-02-20T06:19:17;7.40;99.90
15241;DHT22;7723;52.170;9.978;2023-02-20T06:21:47;7.40;99.90
15241;DHT22;7723;52.170;9.978;2023-02-20T06:24:14;7.40;99.90
15241;DHT22;7723;52.170;9.978;2023-02-20T06:26:44;7.40;99.90
15241;DHT22;7723;52.170;9.978;2023-02-20T06:29:12;7.40;99.90
15241;DHT22;7723;52.170;9.978;2023-02-20T06:31:40;7.40;99.90
15241;DHT22;7723;52.170;9.978;2023-02-20T06:34:08;7.40;99.90
15241;DHT22;7723;52.170;9.978;2023-02-20T06:36:37;7.40;99.90
15241;DHT22;7723;52.170;9.978;2023-02-20T06:39:06;7.40;99.90
15241;DHT22;7723;52.170;9.978;2023-02-20T06:41:34;7.40;99.90
15241;DHT22;7723;52.170;9.978;2023-02-20T06:44:03;7.50;99.90
15241;DHT22;7723;52.170;9.978;2023-02-20T06:46:31;7.40;99.90
15241;DHT22;7723;52.170;9.978;2023-02-20T06:48:59;7.90;99.90
15241;DHT22;7723;52.170;9.978;2023-02-20T06:51:28;7.40;99.90
15241;DHT22;7723;52.170;9.978;2023-02-20T06:53:56;7.40;99.90
15241;DHT22;7723;52.170;9.978;2023-02-20T06:56:25;7.40;99.90
15241;DHT22;7723;52.170;9.978;2023-02-20T06:58:53;7.50;99.90
15241;DHT22;7723;52.170;9.978;2023-02-20T07:01:23;7.60;99.90
15241;DHT22;7723;52.170;9.978;2023-02-20T07:03:51;6.80;99.90
15241;DHT22;7723;52.170;9.978;2023-02-20T07:06:20;7.60;99.90
15241;DHT22;7723;52.170;9.978;2023-02-20T07:08:47;7.60;99.90
15241;DHT22;7723;52.170;9.978;2023-02-20T07:11:16;7.60;99.90
15241;DHT22;7723;52.170;9.978;2023-02-20T07:13:44;7.70;99.90
15241;DHT22;7723;52.170;9.978;2023-02-20T07:16:11;7.70;99.90
15241;DHT22;7723;52.170;9.978;2023-02-20T07:18:40;7.80;99.90
15241;DHT22;7723;52.170;9.978;2023-02-20T07:21:07;7.80;99.90
15241;DHT22;7723;52.170;9.978;2023-02-20T07:23:34;7.80;99.90
15241;DHT22;7723;52.170;9.978;2023-02-20T07:26:01;7.90;99.90
15241;DHT22;7723;52.170;9.978;2023-02-20T07:28:29;7.90;99.90
15241;DHT22;7723;52.170;9.978;2023-02-20T07:30:56;7.90;99.90
15241;DHT22;7723;52.170;9.978;2023-02-20T07:33:23;7.90;99.90
15241;DHT22;7723;52.170;9.978;2023-02-20T07:35:52;8.00;99.90
15241;DHT22;7723;52.170;9.978;2023-02-20T07:38:19;8.00;99.90
15241;DHT22;7723;52.170;9.978;2023-02-20T07:40:46;8.10;99.90
15241;DHT22;7723;52.170;9.978;2023-02-20T07:43:13;8.10;99.90
15241;DHT22;7723;52.170;9.978;2023-02-20T07:45:40;8.10;99.90
15241;DHT22;7723;52.170;9.978;2023-02-20T07:48:07;8.10;99.90
15241;DHT22;7723;52.170;9.978;2023-02-20T07:50:34;8.10;99.90
15241;DHT22;7723;52.170;9.978;2023-02-20T07:53:03;9.00;99.90
15241;DHT22;7723;52.170;9.978;2023-02-20T07:55:30;8.20;99.90
15241;DHT22;7723;52.170;9.978;2023-02-20T07:57:57;8.20;99.90
15241;DHT22;7723;52.170;9.978;2023-02-20T08:00:25;8.20;99.90
15241;DHT22;7723;52.170;9.978;2023-02-20T08:02:52;8.20;99.90
15241;DHT22;7723;52.170;9.978;2023-02-20T08:05:20;8.20;99.90
15241;DHT22;7723;52.170;9.978;2023-02-20T08:07:48;8.20;99.90
15241;DHT22;7723;52.170;9.978;2023-02-20T08:10:19;8.20;99.90
15241;DHT22;7723;52.170;9.978;2023-02-20T08:12:47;8.20;99.90
15241;DHT22;7723;52.170;9.978;2023-02-20T08:15:16;8.20;99.90
15241;DHT22;7723;52.170;9.978;2023-02-20T08:17:44;8.20;99.90
15241;DHT22;7723;52.170;9.978;2023-02-20T08:20:12;8.20;99.90
15241;DHT22;7723;52.170;9.978;2023-02-20T08:22:40;8.20;99.90
15241;DHT22;7723;52.170;9.978;2023-02-20T08:25:07;8.30;99.90
15241;DHT22;7723;52.170;9.978;2023-02-20T08:27:35;8.30;99.90
15241;DHT22;7723;52.170;9.978;2023-02-20T08:30:04;8.30;99.90
15241;DHT22;7723;52.170;9.978;2023-02-20T08:32:31;8.30;99.90
15241;DHT22;7723;52.170;9.978;2023-02-20T08:34:58;8.30;99.90
15241;DHT22;7723;52.170;9.978;2023-02-20T08:37:25;8.30;99.90
15241;DHT22;7723;52.170;9.978;2023-02-20T08:39:53;8.30;99.90
15241;DHT22;7723;52.170;9.978;2023-02-20T08:42:20;8.30;99.90
15241;DHT22;7723;52.170;9.978;2023-02-20T08:44:48;8.30;99.90
15241;DHT22;7723;52.170;9.978;2023-02-20T08:47:18;8.30;99.90
15241;DHT22;7723;52.170;9.978;2023-02-20T08:49:46;9.60;99.90
15241;DHT22;7723;52.170;9.978;2023-02-20T08:52:14;8.30;99.90
15241;DHT22;7723;52.170;9.978;2023-02-20T08:54:43;8.40;99.90
15241;DHT22;7723;52.170;9.978;2023-02-20T08:57:11;7.00;99.90
15241;DHT22;7723;52.170;9.978;2023-02-20T08:59:38;8.60;99.90
15241;DHT22;7723;52.170;9.978;2023-02-20T09:02:08;8.80;99.90
15241;DHT22;7723;52.170;9.978;2023-02-20T09:04:42;9.00;99.90
15241;DHT22;7723;52.170;9.978;2023-02-20T09:07:10;9.30;99.90
15241;DHT22;7723;52.170;9.978;2023-02-20T09:09:37;9.40;99.90
15241;DHT22;7723;52.170;9.978;2023-02-20T09:12:05;9.10;99.90
15241;DHT22;7723;52.170;9.978;2023-02-20T09:14:32;9.00;99.90
15241;DHT22;7723;52.170;9.978;2023-02-20T09:16:59;8.90;99.90
15241;DHT22;7723;52.170;9.978;2023-02-20T09:19:28;9.00;99.90
15241;DHT22;7723;52.170;9.978;2023-02-20T09:21:55;9.00;99.90
15241;DHT22;7723;52.170;9.978;2023-02-20T09:24:22;9.00;99.90
15241;DHT22;7723;52.170;9.978;2023-02-20T09:26:50;8.90;99.90
15241;DHT22;7723;52.170;9.978;2023-02-20T09:29:17;9.00;99.90
15241;DHT22;7723;52.170;9.978;2023-02-20T09:31:44;9.10;99.90
15241;DHT22;7723;52.170;9.978;2023-02-20T09:34:11;9.10;99.90
15241;DHT22;7723;52.170;9.978;2023-02-20T09:36:39;9.20;99.90
15241;DHT22;7723;52.170;9.978;2023-02-20T09:39:06;9.10;99.90
15241;DHT22;7723;52.170;9.978;2023-02-20T09:41:50;9.10;99.90
15241;DHT22;7723;52.170;9.978;2023-02-20T09:44:28;9.20;99.90
15241;DHT22;7723;52.170;9.978;2023-02-20T09:46:59;9.10;99.90
15241;DHT22;7723;52.170;9.978;2023-02-20T09:49:29;9.10;99.90
15241;DHT22;7723;52.170;9.978;2023-02-20T09:52:05;9.30;99.90
15241;DHT22;7723;52.170;9.978;2023-02-20T09:54:36;9.40;99.90
15241;DHT22;7723;52.170;9.978;2023-02-20T09:57:09;9.60;99.90
15241;DHT22;7723;52.170;9.978;2023-02-20T09:59:40;9.50;99.90
15241;DHT22;7723;52.170;9.978;2023-02-20T10:02:14;9.40;99.90
15241;DHT22;7723;52.170;9.978;2023-02-20T10:04:44;9.40;99.90
15241;DHT22;7723;52.170;9.978;2023-02-20T10:07:18;9.30;99.90
15241;DHT22;7723;52.170;9.978;2023-02-20T10:09:46;9.30;99.90
15241;DHT22;7723;52.170;9.978;2023-02-20T10:12:18;9.30;99.90
15241;DHT22;7723;52.170;9.978;2023-02-20T10:14:59;10.70;99.90
15241;DHT22;7723;52.170;9.978;2023-02-20T10:17:37;9.20;99.90
15241;DHT22;7723;52.170;9.978;2023-02-20T10:20:12;9.10;99.90
15241;DHT22;7723;52.170;9.978;2023-02-20T10:22:50;9.00;99.90
15241;DHT22;7723;52.170;9.978;2023-02-20T10:25:24;9.00;99.90
15241;DHT22;7723;52.170;9.978;2023-02-20T10:27:58;9.00;99.90
15241;DHT22;7723;52.170;9.978;2023-02-20T10:30:29;9.00;99.90
15241;DHT22;7723;52.170;9.978;2023-02-20T10:33:02;9.00;99.90
15241;DHT22;7723;52.170;9.978;2023-02-20T10:35:35;9.00;99.90
15241;DHT22;7723;52.170;9.978;2023-02-20T10:38:08;9.00;99.90
15241;DHT22;7723;52.170;9.978;2023-02-20T10:40:39;9.10;99.90
15241;DHT22;7723;52.170;9.978;2023-02-20T10:43:13;9.00;99.90
15241;DHT22;7723;52.170;9.978;2023-02-20T10:45:47;9.10;99.90
15241;DHT22;7723;52.170;9.978;2023-02-20T10:48:16;9.10;99.90
15241;DHT22;7723;52.170;9.978;2023-02-20T10:50:47;9.10;99.90
15241;DHT22;7723;52.170;9.978;2023-02-20T10:53:21;9.10;99.90
15241;DHT22;7723;52.170;9.978;2023-02-20T10:55:55;9.10;99.90
15241;DHT22;7723;52.170;9.978;2023-02-20T10:58:28;9.10;99.90
15241;DHT22;7723;52.170;9.978;2023-02-20T11:00:59;9.20;99.90
15241;DHT22;7723;52.170;9.978;2023-02-20T11:03:33;9.20;99.90
15241;DHT22;7723;52.170;9.978;2023-02-20T11:06:04;9.20;99.90
15241;DHT22;7723;52.170;9.978;2023-02-20T11:08:34;9.10;99.90
15241;DHT22;7723;52.170;9.978;2023-02-20T11:11:20;9.00;99.90
15241;DHT22;7723;52.170;9.978;2023-02-20T11:13:48;9.10;99.90
15241;DHT22;7723;52.170;9.978;2023-02-20T11:16:21;9.10;99.90
15241;DHT22;7723;52.170;9.978;2023-02-20T11:18:55;9.10;99.90
15241;DHT22;7723;52.170;9.978;2023-02-20T11:21:36;9.10;99.90
15241;DHT22;7723;52.170;9.978;2023-02-20T11:24:27;9.20;99.90
15241;DHT22;7723;52.170;9.978;2023-02-20T11:27:04;9.20;99.90
15241;DHT22;7723;52.170;9.978;2023-02-20T11:29:36;9.10;99.90
15241;DHT22;7723;52.170;9.978;2023-02-20T11:32:32;9.20;99.90
15241;DHT22;7723;52.170;9.978;2023-02-20T11:35:20;9.10;99.90
15241;DHT22;7723;52.170;9.978;2023-02-20T11:37:49;9.00;99.90
15241;DHT22;7723;52.170;9.978;2023-02-20T11:40:23;9.00;99.90
15241;DHT22;7723;52.170;9.978;2023-02-20T11:42:52;8.90;99.90
15241;DHT22;7723;52.170;9.978;2023-02-20T11:45:23;8.80;99.90
15241;DHT22;7723;52.170;9.978;2023-02-20T11:48:06;8.80;99.90
15241;DHT22;7723;52.170;9.978;2023-02-20T11:50:39;8.70;99.90
15241;DHT22;7723;52.170;9.978;2023-02-20T11:53:18;8.70;99.90
15241;DHT22;7723;52.170;9.978;2023-02-20T11:55:47;8.60;99.90
15241;DHT22;7723;52.170;9.978;2023-02-20T11:58:23;8.60;99.90
15241;DHT22;7723;52.170;9.978;2023-02-20T12:00:52;8.60;99.90
15241;DHT22;7723;52.170;9.978;2023-02-20T12:03:21;8.60;99.90
15241;DHT22;7723;52.170;9.978;2023-02-20T12:05:49;8.60;99.90
15241;DHT22;7723;52.170;9.978;2023-02-20T12:08:33;8.50;99.90
15241;DHT22;7723;52.170;9.978;2023-02-20T12:11:06;8.50;99.90
15241;DHT22;7723;52.170;9.978;2023-02-20T12:13:37;8.40;99.90
15241;DHT22;7723;52.170;9.978;2023-02-20T12:16:27;8.40;99.90
15241;DHT22;7723;52.170;9.978;2023-02-20T12:19:00;8.40;99.90
15241;DHT22;7723;52.170;9.978;2023-02-20T12:21:40;8.40;99.90
15241;DHT22;7723;52.170;9.978;2023-02-20T12:24:29;8.30;99.90
15241;DHT22;7723;52.170;9.978;2023-02-20T12:27:02;8.30;99.90
15241;DHT22;7723;52.170;9.978;2023-02-20T12:29:40;8.20;99.90
15241;DHT22;7723;52.170;9.978;2023-02-20T12:32:18;8.20;99.90
15241;DHT22;7723;52.170;9.978;2023-02-20T12:35:12;8.10;99.90
15241;DHT22;7723;52.170;9.978;2023-02-20T12:37:49;8.10;99.90
15241;DHT22;7723;52.170;9.978;2023-02-20T12:40:32;8.10;99.90
15241;DHT22;7723;52.170;9.978;2023-02-20T12:43:12;8.10;99.90
15241;DHT22;7723;52.170;9.978;2023-02-20T12:45:48;8.00;99.90
15241;DHT22;7723;52.170;9.978;2023-02-20T12:48:28;8.00;99.90
15241;DHT22;7723;52.170;9.978;2023-02-20T12:51:08;8.10;99.90
15241;DHT22;7723;52.170;9.978;2023-02-20T12:53:50;8.00;99.90
15241;DHT22;7723;52.170;9.978;2023-02-20T12:56:28;8.00;99.90
15241;DHT22;7723;52.170;9.978;2023-02-20T12:59:02;8.00;99.90
15241;DHT22;7723;52.170;9.978;2023-02-20T13:01:33;8.00;99.90
15241;DHT22;7723;52.170;9.978;2023-02-20T13:04:04;8.00;99.90
15241;DHT22;7723;52.170;9.978;2023-02-20T13:06:35;8.00;99.90
15241;DHT22;7723;52.170;9.978;2023-02-20T13:09:12;8.00;99.90
15241;DHT22;7723;52.170;9.978;2023-02-20T13:11:43;8.10;99.90
15241;DHT22;7723;52.170;9.978;2023-02-20T13:14:28;8.10;99.90
15241;DHT22;7723;52.170;9.978;2023-02-20T13:17:06;8.10;99.90
15241;DHT22;7723;52.170;9.978;2023-02-20T13:19:39;8.10;99.90
15241;DHT22;7723;52.170;9.978;2023-02-20T13:22:07;8.10;99.90
15241;DHT22;7723;52.170;9.978;2023-02-20T13:24:36;8.10;99.90
15241;DHT22;7723;52.170;9.978;2023-02-20T13:27:04;8.10;99.90
15241;DHT22;7723;52.170;9.978;2023-02-20T13:29:35;8.10;99.90
15241;DHT22;7723;52.170;9.978;2023-02-20T13:32:23;8.10;99.90
15241;DHT22;7723;52.170;9.978;2023-02-20T13:34:51;8.00;99.90
15241;DHT22;7723;52.170;9.978;2023-02-20T13:37:49;8.00;99.90
15241;DHT22;7723;52.170;9.978;2023-02-20T13:40:41;8.00;99.90
15241;DHT22;7723;52.170;9.978;2023-02-20T13:43:28;8.00;99.90
15241;DHT22;7723;52.170;9.978;2023-02-20T13:46:12;8.00;99.90
15241;DHT22;7723;52.170;9.978;2023-02-20T13:48:43;8.00;99.90
15241;DHT22;7723;52.170;9.978;2023-02-20T13:51:31;8.00;99.90
15241;DHT22;7723;52.170;9.978;2023-02-20T13:54:12;8.00;99.90
15241;DHT22;7723;52.170;9.978;2023-02-20T13:56:46;8.10;99.90
15241;DHT22;7723;52.170;9.978;2023-02-20T13:59:16;8.10;99.90
15241;DHT22;7723;52.170;9.978;2023-02-20T14:02:13;8.10;99.90
15241;DHT22;7723;52.170;9.978;2023-02-20T14:04:52;8.10;99.90
15241;DHT22;7723;52.170;9.978;2023-02-20T14:07:33;8.10;99.90
15241;DHT22;7723;52.170;9.978;2023-02-20T14:10:05;8.20;99.90
15241;DHT22;7723;52.170;9.978;2023-02-20T14:12:33;8.20;99.90
15241;DHT22;7723;52.170;9.978;2023-02-20T14:15:04;8.20;99.90
15241;DHT22;7723;52.170;9.978;2023-02-20T14:17:33;8.30;99.90
15241;DHT22;7723;52.170;9.978;2023-02-20T14:20:05;8.30;99.90
15241;DHT22;7723;52.170;9.978;2023-02-20T14:22:34;8.30;99.90
15241;DHT22;7723;52.170;9.978;2023-02-20T14:25:19;8.40;99.90
15241;DHT22;7723;52.170;9.978;2023-02-20T14:27:47;8.40;99.90
15241;DHT22;7723;52.170;9.978;2023-02-20T14:30:16;8.40;99.90
15241;DHT22;7723;52.170;9.978;2023-02-20T14:32:47;8.50;99.90
15241;DHT22;7723;52.170;9.978;2023-02-20T14:35:28;8.50;99.90
15241;DHT22;7723;52.170;9.978;2023-02-20T14:38:11;8.60;99.90
15241;DHT22;7723;52.170;9.978;2023-02-20T14:40:40;8.60;99.90
15241;DHT22;7723;52.170;9.978;2023-02-20T14:43:14;8.70;99.90
15241;DHT22;7723;52.170;9.978;2023-02-20T14:45:44;8.60;99.90
15241;DHT22;7723;52.170;9.978;2023-02-20T14:48:24;8.70;99.90
15241;DHT22;7723;52.170;9.978;2023-02-20T14:51:03;8.60;99.90
15241;DHT22;7723;52.170;9.978;2023-02-20T14:53:34;8.70;99.90
15241;DHT22;7723;52.170;9.978;2023-02-20T14:56:13;8.60;99.90
15241;DHT22;7723;52.170;9.978;2023-02-20T14:58:42;8.60;99.90
15241;DHT22;7723;52.170;9.978;2023-02-20T15:01:14;8.60;99.90
15241;DHT22;7723;52.170;9.978;2023-02-20T15:03:57;8.50;99.90
15241;DHT22;7723;52.170;9.978;2023-02-20T15:06:26;8.50;99.90
15241;DHT22;7723;52.170;9.978;2023-02-20T15:08:56;8.50;99.90
15241;DHT22;7723;52.170;9.978;2023-02-20T15:11:24;8.50;99.90
15241;DHT22;7723;52.170;9.978;2023-02-20T15:13:52;8.50;99.90
15241;DHT22;7723;52.170;9.978;2023-02-20T15:16:21;8.50;99.90
15241;DHT22;7723;52.170;9.978;2023-02-20T15:18:51;8.40;99.90
15241;DHT22;7723;52.170;9.978;2023-02-20T15:21:32;8.40;99.90
15241;DHT22;7723;52.170;9.978;2023-02-20T15:24:26;8.30;99.90
15241;DHT22;7723;52.170;9.978;2023-02-20T15:27:06;8.30;99.90
15241;DHT22;7723;52.170;9.978;2023-02-20T15:29:34;8.30;99.90
15241;DHT22;7723;52.170;9.978;2023-02-20T15:32:03;8.30;99.90
15241;DHT22;7723;52.170;9.978;2023-02-20T15:34:34;8.30;99.90
15241;DHT22;7723;52.170;9.978;2023-02-20T15:37:16;8.30;99.90
15241;DHT22;7723;52.170;9.978;2023-02-20T15:39:44;8.30;99.90
15241;DHT22;7723;52.170;9.978;2023-02-20T15:42:14;8.40;99.90
15241;DHT22;7723;52.170;9.978;2023-02-20T15:44:41;8.40;99.90
15241;DHT22;7723;52.170;9.978;2023-02-20T15:47:08;8.40;99.90
15241;DHT22;7723;52.170;9.978;2023-02-20T15:49:37;8.40;99.90
15241;DHT22;7723;52.170;9.978;2023-02-20T15:52:05;8.30;99.90
15241;DHT22;7723;52.170;9.978;2023-02-20T15:54:34;8.40;99.90
15241;DHT22;7723;52.170;9.978;2023-02-20T15:57:01;8.40;99.90
15241;DHT22;7723;52.170;9.978;2023-02-20T15:59:28;9.00;99.90
15241;DHT22;7723;52.170;9.978;2023-02-20T16:01:55;8.40;99.90
15241;DHT22;7723;52.170;9.978;2023-02-20T16:04:23;8.30;99.90
15241;DHT22;7723;52.170;9.978;2023-02-20T16:06:51;8.40;99.90
15241;DHT22;7723;52.170;9.978;2023-02-20T16:09:19;8.40;99.90
15241;DHT22;7723;52.170;9.978;2023-02-20T16:11:46;8.40;99.90
15241;DHT22;7723;52.170;9.978;2023-02-20T16:14:14;8.40;99.90
15241;DHT22;7723;52.170;9.978;2023-02-20T16:16:44;8.40;99.90
15241;DHT22;7723;52.170;9.978;2023-02-20T16:19:14;8.40;99.90
15241;DHT22;7723;52.170;9.978;2023-02-20T16:21:41;8.40;99.90
15241;DHT22;7723;52.170;9.978;2023-02-20T16:24:10;8.40;99.90
15241;DHT22;7723;52.170;9.978;2023-02-20T16:26:40;8.40;99.90
15241;DHT22;7723;52.170;9.978;2023-02-20T16:29:14;8.40;99.90
15241;DHT22;7723;52.170;9.978;2023-02-20T16:32:20;8.40;99.90